createdAt,value
2018-02-04T11:04:57.234Z,23
2018-02-04T11:05:57.286Z,23
2018-02-04T11:06:57.112Z,23.1
2018-02-04T11:07:57.248Z,23.1
2018-02-04T11:08:56.955Z,23.1
2018-02-04T11:09:56.912Z,23
2018-02-04T11:10:56.768Z,23.1
2018-02-04T11:11:56.839Z,23.1
2018-02-04T11:12:56.603Z,23.1
2018-02-04T11:13:56.531Z,23.1
2018-02-04T11:14:56.570Z,23.1
2018-02-04T11:15:56.380Z,23.1
2018-02-04T11:16:56.321Z,23.1
2018-02-04T11:17:56.426Z,23.1
2018-02-04T11:18:56.120Z,23.1
2018-02-04T11:19:56.103Z,23
2018-02-04T11:20:55.991Z,23
2018-02-04T11:21:56.049Z,23.1
2018-02-04T11:22:56.125Z,23.1
2018-02-04T11:23:55.862Z,23
2018-02-04T11:24:55.648Z,23
2018-02-04T11:25:55.637Z,23
2018-02-04T11:26:55.525Z,23.1
2018-02-04T11:27:55.413Z,23.1
2018-02-04T11:28:55.513Z,23
2018-02-04T11:29:55.343Z,23
2018-02-04T11:30:55.532Z,23.1
2018-02-04T11:31:55.249Z,23.1
2018-02-04T11:32:55.157Z,23.1
2018-02-04T11:33:54.974Z,23.1
2018-02-04T11:34:55.163Z,23.1
2018-02-04T11:35:54.848Z,23.1
2018-02-04T11:36:55.006Z,23
2018-02-04T11:37:54.693Z,23
2018-02-04T11:38:54.692Z,23
2018-02-04T11:39:54.503Z,23.1
2018-02-04T11:40:54.682Z,23.1
2018-02-04T11:41:54.380Z,23.1
2018-02-04T11:42:54.268Z,23
2018-02-04T11:43:54.309Z,23
2018-02-04T11:44:54.116Z,23.1
2018-02-04T11:45:54.094Z,23.1
2018-02-04T11:46:53.996Z,22.9
2018-02-04T11:47:53.910Z,22.9
2018-02-04T11:48:53.819Z,23
2018-02-04T11:49:53.729Z,23
2018-02-04T11:50:53.646Z,22.9
2018-02-04T11:51:53.567Z,22.9
2018-02-04T11:52:53.532Z,22.9
2018-02-04T11:53:53.480Z,22.9
2018-02-04T11:54:53.439Z,22.9
2018-02-04T11:55:53.367Z,22.9
2018-02-04T11:56:53.330Z,22.8
2018-02-04T11:57:53.067Z,22.9
2018-02-04T11:58:53.017Z,22.9
2018-02-04T11:59:53.048Z,22.9
2018-02-04T12:00:52.875Z,22.9
2018-02-04T12:01:52.763Z,22.9
2018-02-04T12:02:52.859Z,22.8
2018-02-04T12:03:52.654Z,22.9
2018-02-04T12:04:52.554Z,22.9
2018-02-04T12:05:52.476Z,22.8
2018-02-04T12:06:52.383Z,22.8
2018-02-04T12:07:52.350Z,22.8
2018-02-04T12:08:52.408Z,22.8
2018-02-04T12:09:52.306Z,22.9
2018-02-04T12:10:52.094Z,22.8
2018-02-04T12:11:52.073Z,22.8
2018-02-04T12:12:52.022Z,22.8
2018-02-04T12:13:51.975Z,22.8
2018-02-04T12:14:51.854Z,22.9
2018-02-04T12:15:51.871Z,22.8
2018-02-04T12:16:51.795Z,22.7
2018-02-04T12:17:51.768Z,22.8
2018-02-04T12:18:51.562Z,22.8
2018-02-04T12:19:51.527Z,22.8
2018-02-04T12:20:51.389Z,22.8
2018-02-04T12:21:51.347Z,22.8
2018-02-04T12:22:51.273Z,22.8
2018-02-04T12:23:51.294Z,22.9
2018-02-04T12:24:51.142Z,22.9
2018-02-04T12:25:51.181Z,22.8
2018-02-04T12:26:51.084Z,22.7
2018-02-04T12:27:51.015Z,22.8
2018-02-04T12:28:50.914Z,22.8
2018-02-04T12:29:50.760Z,22.7
2018-02-04T12:30:50.702Z,22.6
2018-02-04T12:31:50.738Z,22.6
2018-02-04T12:32:50.552Z,22.6
2018-02-04T12:33:50.528Z,22.5
2018-02-04T12:34:50.723Z,22.6
2018-02-04T12:35:50.390Z,22.6
2018-02-04T12:36:50.333Z,22.7
2018-02-04T12:37:50.302Z,22.8
2018-02-04T12:38:50.307Z,22.9
2018-02-04T12:39:50.187Z,22.9
2018-02-04T12:40:50.038Z,23
2018-02-04T12:41:49.980Z,23.1
2018-02-04T12:42:49.961Z,23.2
2018-02-04T12:43:49.824Z,23.3
2018-02-04T12:44:49.832Z,23.2
2018-02-04T12:45:49.654Z,23.2
2018-02-04T12:46:49.854Z,23.2
2018-02-04T12:47:49.558Z,23.3
2018-02-04T12:48:49.501Z,23.3
2018-02-04T12:49:49.390Z,23.1
2018-02-04T12:50:49.294Z,23.1
2018-02-04T12:51:49.279Z,23.1
2018-02-04T12:52:49.176Z,23.1
2018-02-04T12:53:49.117Z,23.1
2018-02-04T12:54:49.016Z,22.9
2018-02-04T12:55:48.936Z,22.8
2018-02-04T12:56:48.839Z,22.9
2018-02-04T12:57:48.813Z,22.9
2018-02-04T12:58:48.764Z,22.8
2018-02-04T12:59:48.765Z,22.8
2018-02-04T13:00:48.650Z,22.7
2018-02-04T13:01:48.656Z,22.6
2018-02-04T13:02:48.523Z,22.7
2018-02-04T13:03:48.645Z,22.7
2018-02-04T13:04:48.270Z,22.8
2018-02-04T13:05:48.254Z,22.8
2018-02-04T13:06:48.152Z,22.8
2018-02-04T13:07:48.039Z,22.8
2018-02-04T13:08:48.065Z,22.8
2018-02-04T13:09:47.897Z,22.9
2018-02-04T13:10:47.788Z,23
2018-02-04T13:11:47.874Z,22.9
2018-02-04T13:12:47.797Z,22.9
2018-02-04T13:13:47.542Z,22.9
2018-02-04T13:14:47.493Z,22.9
2018-02-04T13:15:47.583Z,23
2018-02-04T13:16:47.444Z,22.9
2018-02-04T13:17:47.367Z,22.8
2018-02-04T13:18:47.221Z,22.8
2018-02-04T13:19:47.102Z,22.9
2018-02-04T13:20:47.337Z,22.9
2018-02-04T13:21:46.980Z,22.8
2018-02-04T13:22:46.838Z,22.8
2018-02-04T13:23:46.826Z,22.8
2018-02-04T13:24:46.777Z,22.8
2018-02-04T13:25:46.992Z,22.8
2018-02-04T13:26:46.577Z,22.8
2018-02-04T13:27:46.485Z,22.8
2018-02-04T13:28:46.447Z,22.8
2018-02-04T13:29:46.300Z,22.8
2018-02-04T13:30:46.396Z,22.8
2018-02-04T13:31:46.231Z,22.8
2018-02-04T13:32:46.109Z,22.8
2018-02-04T13:33:46.134Z,22.9
2018-02-04T13:34:46.227Z,22.9
2018-02-04T13:35:45.862Z,22.9
2018-02-04T13:36:45.780Z,22.8
2018-02-04T13:37:45.701Z,22.8
2018-02-04T13:38:45.915Z,22.8
2018-02-04T13:39:45.574Z,22.9
2018-02-04T13:40:45.442Z,22.8
2018-02-04T13:41:45.453Z,22.7
2018-02-04T13:42:45.326Z,22.6
2018-02-04T13:43:45.232Z,22.6
2018-02-04T13:44:45.444Z,22.6
2018-02-04T13:45:45.073Z,22.7
2018-02-04T13:46:44.967Z,22.8
2018-02-04T13:47:44.954Z,22.9
2018-02-04T13:48:44.949Z,22.9
2018-02-04T13:49:44.759Z,22.9
2018-02-04T13:50:44.692Z,23
2018-02-04T13:51:44.714Z,23.1
2018-02-04T13:52:44.674Z,23.1
2018-02-04T13:53:44.462Z,23.1
2018-02-04T13:54:44.476Z,23
2018-02-04T13:55:44.440Z,23.1
2018-02-04T13:56:44.246Z,23.1
2018-02-04T13:57:44.248Z,23.1
2018-02-04T13:58:44.057Z,22.9
2018-02-04T13:59:43.992Z,22.9
2018-02-04T14:00:43.940Z,22.9
2018-02-04T14:01:43.792Z,22.9
2018-02-04T14:02:43.755Z,23
2018-02-04T14:03:43.667Z,22.8
2018-02-04T14:04:43.627Z,22.8
2018-02-04T14:05:43.494Z,22.9
2018-02-04T14:06:43.428Z,22.9
2018-02-04T14:07:43.459Z,22.9
2018-02-04T14:08:43.288Z,22.8
2018-02-04T14:09:43.199Z,22.8
2018-02-04T14:10:43.119Z,22.8
2018-02-04T14:11:43.019Z,22.9
2018-02-04T14:12:43.122Z,22.9
2018-02-04T14:13:42.859Z,22.8
2018-02-04T14:14:42.828Z,22.8
2018-02-04T14:15:42.836Z,22.8
2018-02-04T14:16:42.725Z,22.8
2018-02-04T14:17:42.605Z,22.8
2018-02-04T14:18:42.606Z,22.7
2018-02-04T14:19:42.528Z,22.7
2018-02-04T14:20:42.347Z,22.6
2018-02-04T14:21:42.261Z,22.7
2018-02-04T14:22:42.276Z,22.8
2018-02-04T14:23:42.076Z,22.8
2018-02-04T14:24:42.178Z,22.8
2018-02-04T14:25:42.256Z,22.8
2018-02-04T14:26:41.873Z,22.8
2018-02-04T14:27:41.793Z,22.9
2018-02-04T14:28:41.720Z,22.9
2018-02-04T14:29:41.695Z,22.8
2018-02-04T14:30:41.579Z,22.7
2018-02-04T14:31:41.769Z,22.7
2018-02-04T14:32:41.381Z,22.8
2018-02-04T14:33:41.356Z,22.8
2018-02-04T14:34:41.303Z,22.8
2018-02-04T14:35:41.198Z,22.8
2018-02-04T14:36:41.100Z,22.8
2018-02-04T14:37:41.016Z,22.8
2018-02-04T14:38:40.936Z,22.9
2018-02-04T14:39:41.004Z,22.9
2018-02-04T14:40:40.837Z,22.8
2018-02-04T14:41:40.730Z,22.8
2018-02-04T14:42:40.683Z,22.8
2018-02-04T14:43:40.658Z,22.9
2018-02-04T14:44:40.466Z,22.9
2018-02-04T14:45:40.421Z,22.8
2018-02-04T14:46:40.385Z,22.7
2018-02-04T14:47:40.232Z,22.8
2018-02-04T14:48:40.151Z,22.8
2018-02-04T14:49:40.088Z,22.8
2018-02-04T14:50:40.028Z,22.8
2018-02-04T14:51:39.887Z,22.7
2018-02-04T14:52:39.853Z,22.7
2018-02-04T14:53:39.759Z,22.7
2018-02-04T14:54:39.688Z,22.8
2018-02-04T14:55:39.666Z,22.8
2018-02-04T14:56:39.567Z,22.8
2018-02-04T14:57:39.559Z,22.8
2018-02-04T14:58:39.383Z,22.8
2018-02-04T14:59:39.266Z,22.9
2018-02-04T15:00:39.256Z,22.9
2018-02-04T15:01:39.146Z,22.9
2018-02-04T15:02:39.167Z,22.8
2018-02-04T15:03:38.978Z,22.8
2018-02-04T15:04:39.157Z,22.8
2018-02-04T15:05:38.857Z,22.9
2018-02-04T15:06:38.903Z,22.8
2018-02-04T15:07:38.644Z,22.8
2018-02-04T15:08:38.640Z,22.7
2018-02-04T15:09:38.627Z,22.7
2018-02-04T15:10:38.447Z,22.8
2018-02-04T15:11:38.504Z,22.8
2018-02-04T15:12:38.249Z,22.9
2018-02-04T15:13:38.203Z,22.8
2018-02-04T15:14:38.233Z,22.8
2018-02-04T15:15:38.370Z,22.9
2018-02-04T15:16:38.247Z,22.9
2018-02-04T15:17:38.037Z,22.9
2018-02-04T15:18:38.098Z,22.8
2018-02-04T15:19:37.734Z,22.8
2018-02-04T15:20:37.761Z,22.8
2018-02-04T15:21:37.867Z,22.8
2018-02-04T15:22:37.531Z,22.8
2018-02-04T15:23:37.393Z,22.8
2018-02-04T15:24:37.497Z,22.7
2018-02-04T15:25:37.235Z,22.8
2018-02-04T15:26:37.187Z,22.8
2018-02-04T15:27:37.141Z,22.8
2018-02-04T15:28:37.009Z,22.7
2018-02-04T15:29:36.949Z,22.6
2018-02-04T15:30:36.887Z,22.5
2018-02-04T15:31:36.799Z,22.5
2018-02-04T15:32:36.827Z,22.6
2018-02-04T15:33:36.679Z,22.6
2018-02-04T15:34:36.536Z,22.6
2018-02-04T15:35:36.519Z,22.6
2018-02-04T15:36:36.417Z,22.8
2018-02-04T15:37:36.325Z,22.8
2018-02-04T15:38:36.358Z,22.9
2018-02-04T15:39:36.493Z,22.8
2018-02-04T15:40:36.167Z,22.9
2018-02-04T15:41:36.053Z,22.9
2018-02-04T15:42:35.945Z,23
2018-02-04T15:43:35.828Z,23
2018-02-04T15:44:35.862Z,22.9
2018-02-04T15:45:35.957Z,22.8
2018-02-04T15:46:35.658Z,22.8
2018-02-04T15:47:35.548Z,22.9
2018-02-04T15:48:35.581Z,22.9
2018-02-04T15:49:35.546Z,22.8
2018-02-04T15:50:35.390Z,22.8
2018-02-04T15:51:35.359Z,22.8
2018-02-04T15:52:35.155Z,22.8
2018-02-04T15:53:35.090Z,22.8
2018-02-04T15:54:35.198Z,22.7
2018-02-04T15:55:34.892Z,22.6
2018-02-04T15:56:35.136Z,22.6
2018-02-04T15:57:34.887Z,22.7
2018-02-04T15:58:34.800Z,22.8
2018-02-04T15:59:34.645Z,22.8
2018-02-04T16:00:34.592Z,22.6
2018-02-04T16:01:34.454Z,21.6
2018-02-04T16:02:34.669Z,20.7
2018-02-04T16:03:34.417Z,20.2
2018-02-04T16:04:34.325Z,20.3
2018-02-04T16:05:34.118Z,20.5
2018-02-04T16:06:34.061Z,20.7
2018-02-04T16:07:34.134Z,20.9
2018-02-04T16:08:34.198Z,21.3
2018-02-04T16:09:33.935Z,21.5
2018-02-04T16:10:33.722Z,21.8
2018-02-04T16:11:33.824Z,22
2018-02-04T16:12:33.602Z,22.2
2018-02-04T16:13:33.517Z,22.4
2018-02-04T16:14:33.732Z,22.6
2018-02-04T16:15:33.420Z,22.8
2018-02-04T16:16:33.320Z,22.9
2018-02-04T16:17:33.269Z,23.2
2018-02-04T16:18:33.161Z,23.2
2018-02-04T16:19:33.055Z,23.3
2018-02-04T16:20:32.973Z,23.5
2018-02-04T16:21:33.003Z,23.6
2018-02-04T16:22:32.797Z,23.7
2018-02-04T16:23:32.892Z,23.6
2018-02-04T16:24:32.771Z,23.5
2018-02-04T16:25:32.688Z,23.6
2018-02-04T16:26:32.563Z,23.6
2018-02-04T16:27:32.573Z,23.6
2018-02-04T16:28:32.407Z,23.4
2018-02-04T16:29:32.306Z,23.4
2018-02-04T16:30:32.242Z,23.4
2018-02-04T16:31:32.119Z,23.4
2018-02-04T16:32:32.147Z,23.3
2018-02-04T16:33:31.990Z,23.1
2018-02-04T16:34:31.848Z,23.1
2018-02-04T16:35:31.951Z,23.1
2018-02-04T16:36:31.787Z,23.1
2018-02-04T16:37:31.651Z,23
2018-02-04T16:38:31.695Z,22.9
2018-02-04T16:39:31.548Z,22.8
2018-02-04T16:40:31.525Z,22.9
2018-02-04T16:41:31.335Z,22.9
2018-02-04T16:42:31.365Z,22.8
2018-02-04T16:43:31.179Z,22.7
2018-02-04T16:44:31.139Z,22.6
2018-02-04T16:45:31.100Z,22.6
2018-02-04T16:46:30.952Z,22.7
2018-02-04T16:47:30.866Z,22.7
2018-02-04T16:48:30.892Z,22.8
2018-02-04T16:49:30.999Z,22.8
2018-02-04T16:50:30.744Z,22.8
2018-02-04T16:51:30.522Z,22.7
2018-02-04T16:52:30.625Z,22.8
2018-02-04T16:53:30.398Z,22.8
2018-02-04T16:54:30.406Z,22.8
2018-02-04T16:55:30.395Z,22.8
2018-02-04T16:56:30.138Z,22.8
2018-02-04T16:57:30.231Z,22.8
2018-02-04T16:58:30.016Z,22.8
2018-02-04T16:59:30.222Z,22.9
2018-02-04T17:00:29.849Z,22.8
2018-02-04T17:01:29.785Z,22.7
2018-02-04T17:02:29.844Z,22.7
2018-02-04T17:03:29.772Z,22.7
2018-02-04T17:04:29.596Z,22.7
2018-02-04T17:05:29.756Z,22.7
2018-02-04T17:06:29.416Z,22.8
2018-02-04T17:07:29.367Z,22.8
2018-02-04T17:08:29.236Z,22.8
2018-02-04T17:09:29.189Z,22.8
2018-02-04T17:10:29.123Z,22.9
2018-02-04T17:11:29.344Z,22.9
2018-02-04T17:12:29.016Z,22.9
2018-02-04T17:13:28.975Z,22.9
2018-02-04T17:14:28.880Z,22.8
2018-02-04T17:15:28.748Z,22.8
2018-02-04T17:16:28.712Z,22.9
2018-02-04T17:17:28.754Z,22.9
2018-02-04T17:18:28.585Z,22.8
2018-02-04T17:19:28.543Z,22.7
2018-02-04T17:20:28.413Z,22.7
2018-02-04T17:21:28.367Z,22.8
2018-02-04T17:22:28.308Z,22.8
2018-02-04T17:23:28.264Z,22.8
2018-02-04T17:24:28.134Z,22.8
2018-02-04T17:25:28.127Z,22.8
2018-02-04T17:26:28.015Z,22.8
2018-02-04T17:27:28.077Z,22.9
2018-02-04T17:28:27.900Z,22.8
2018-02-04T17:29:27.933Z,22.8
2018-02-04T17:30:27.747Z,22.8
2018-02-04T17:31:27.714Z,22.9
2018-02-04T17:32:27.675Z,22.9
2018-02-04T17:33:27.880Z,22.8
2018-02-04T17:34:27.590Z,22.8
2018-02-04T17:35:27.380Z,22.8
2018-02-04T17:36:27.375Z,22.8
2018-02-04T17:37:27.275Z,22.9
2018-02-04T17:38:27.310Z,22.8
2018-02-04T17:39:27.251Z,22.7
2018-02-04T17:40:27.067Z,22.8
2018-02-04T17:41:27.249Z,22.8
2018-02-04T17:42:27.060Z,22.8
2018-02-04T17:43:26.869Z,22.7
2018-02-04T17:44:26.836Z,22.6
2018-02-04T17:45:26.701Z,22.6
2018-02-04T17:46:26.688Z,22.7
2018-02-04T17:47:26.555Z,22.8
2018-02-04T17:48:27.260Z,22.8
2018-02-04T17:49:27.239Z,22.8
2018-02-04T17:50:27.045Z,22.8
2018-02-04T17:51:26.975Z,22.8
2018-02-04T17:52:26.895Z,22.8
2018-02-04T17:53:26.811Z,22.9
2018-02-04T17:54:26.748Z,22.8
2018-02-04T17:55:26.699Z,22.7
2018-02-04T17:56:26.549Z,22.8
2018-02-04T17:57:26.616Z,22.8
2018-02-04T17:58:26.565Z,22.8
2018-02-04T17:59:26.346Z,22.7
2018-02-04T18:00:26.378Z,22.6
2018-02-04T18:01:26.200Z,22.6
2018-02-04T18:02:26.228Z,22.6
2018-02-04T18:03:26.066Z,22.6
2018-02-04T18:04:25.960Z,22.6
2018-02-04T18:05:25.883Z,22.6
2018-02-04T18:06:25.807Z,22.8
2018-02-04T18:07:25.701Z,22.8
2018-02-04T18:08:25.681Z,22.8
2018-02-04T18:09:25.570Z,22.8
2018-02-04T18:10:25.780Z,22.8
2018-02-04T18:11:25.420Z,22.9
2018-02-04T18:12:25.334Z,22.9
2018-02-04T18:13:25.316Z,22.9
2018-02-04T18:14:25.176Z,22.9
2018-02-04T18:15:25.136Z,22.9
2018-02-04T18:16:25.038Z,23
2018-02-04T18:17:24.946Z,23
2018-02-04T18:18:24.837Z,22.9
2018-02-04T18:19:24.945Z,22.9
2018-02-04T18:20:24.716Z,22.9
2018-02-04T18:21:24.655Z,22.9
2018-02-04T18:22:24.563Z,22.9
2018-02-04T18:23:24.455Z,22.8
2018-02-04T18:24:24.561Z,22.8
2018-02-04T18:25:24.356Z,22.7
2018-02-04T18:26:24.216Z,22.7
2018-02-04T18:27:24.459Z,22.8
2018-02-04T18:28:24.095Z,22.8
2018-02-04T18:29:24.012Z,22.7
2018-02-04T18:30:23.965Z,22.7
2018-02-04T18:31:23.828Z,22.7
2018-02-04T18:32:23.780Z,22.8
2018-02-04T18:33:23.832Z,22.8
2018-02-04T18:34:23.657Z,22.8
2018-02-04T18:35:23.605Z,22.8
2018-02-04T18:36:23.501Z,22.8
2018-02-04T18:37:23.361Z,22.8
2018-02-04T18:38:23.313Z,22.8
2018-02-04T18:39:23.488Z,22.7
2018-02-04T18:40:23.190Z,22.6
2018-02-04T18:41:23.188Z,22.6
2018-02-04T18:42:23.114Z,22.6
2018-02-04T18:43:23.226Z,22.6
2018-02-04T18:44:22.843Z,22.6
2018-02-04T18:45:23.022Z,22.7
2018-02-04T18:46:22.709Z,22.7
2018-02-04T18:47:22.611Z,22.8
2018-02-04T18:48:22.593Z,22.8
2018-02-04T18:49:22.492Z,22.8
2018-02-04T18:50:22.439Z,22.8
2018-02-04T18:51:22.334Z,22.8
2018-02-04T18:52:22.333Z,22.9
2018-02-04T18:53:22.146Z,22.8
2018-02-04T18:54:22.177Z,22.7
2018-02-04T18:55:22.025Z,22.6
2018-02-04T18:56:21.881Z,22.6
2018-02-04T18:57:21.985Z,22.6
2018-02-04T18:58:21.729Z,22.7
2018-02-04T18:59:21.792Z,22.8
2018-02-04T19:00:21.712Z,22.9
2018-02-04T19:01:21.555Z,22.9
2018-02-04T19:02:21.521Z,22.9
2018-02-04T19:03:21.674Z,22.9
2018-02-04T19:04:21.294Z,23
2018-02-04T19:05:21.213Z,23
2018-02-04T19:06:21.281Z,22.9
2018-02-04T19:07:21.113Z,22.8
2018-02-04T19:08:21.009Z,22.8
2018-02-04T19:09:20.960Z,22.9
2018-02-04T19:10:20.825Z,22.9
2018-02-04T19:11:20.849Z,22.8
2018-02-04T19:12:20.668Z,22.7
2018-02-04T19:13:20.621Z,22.6
2018-02-04T19:14:20.626Z,22.7
2018-02-04T19:15:20.431Z,22.7
2018-02-04T19:16:20.466Z,22.8
2018-02-04T19:17:20.315Z,22.8
2018-02-04T19:18:20.210Z,22.8
2018-02-04T19:19:20.089Z,22.7
2018-02-04T19:20:20.156Z,22.7
2018-02-04T19:21:19.965Z,22.7
2018-02-04T19:22:19.996Z,22.6
2018-02-04T19:23:19.816Z,22.6
2018-02-04T19:24:19.978Z,22.7
2018-02-04T19:25:19.800Z,22.8
2018-02-04T19:26:19.579Z,22.9
2018-02-04T19:27:19.501Z,22.8
2018-02-04T19:28:19.418Z,22.8
2018-02-04T19:29:19.597Z,22.9
2018-02-04T19:30:19.418Z,22.9
2018-02-04T19:31:19.295Z,22.9
2018-02-04T19:32:19.212Z,22.9
2018-02-04T19:33:19.140Z,22.8
2018-02-04T19:34:18.930Z,22.9
2018-02-04T19:35:18.910Z,22.9
2018-02-04T19:36:18.794Z,22.8
2018-02-04T19:37:18.838Z,22.8
2018-02-04T19:38:18.673Z,22.6
2018-02-04T19:39:18.626Z,22.6
2018-02-04T19:40:18.812Z,22.6
2018-02-04T19:41:18.655Z,22.6
2018-02-04T19:42:18.334Z,22.6
2018-02-04T19:43:18.402Z,22.6
2018-02-04T19:44:18.145Z,22.7
2018-02-04T19:45:18.201Z,22.8
2018-02-04T19:46:18.036Z,22.8
2018-02-04T19:47:17.939Z,22.9
2018-02-04T19:48:17.863Z,22.8
2018-02-04T19:49:17.938Z,22.8
2018-02-04T19:50:17.674Z,22.9
2018-02-04T19:51:17.775Z,22.9
2018-02-04T19:52:17.841Z,22.9
2018-02-04T19:53:17.471Z,22.8
2018-02-04T19:54:17.505Z,22.7
2018-02-04T19:55:17.380Z,22.6
2018-02-04T19:56:17.209Z,22.6
2018-02-04T19:57:17.500Z,22.6
2018-02-04T19:58:17.096Z,22.6
2018-02-04T19:59:16.977Z,22.6
2018-02-04T20:00:17.299Z,22.7
2018-02-04T20:01:16.909Z,22.8
2018-02-04T20:02:16.809Z,22.9
2018-02-04T20:03:16.705Z,22.9
2018-02-04T20:04:16.731Z,22.8
2018-02-04T20:05:16.541Z,22.8
2018-02-04T20:06:16.546Z,22.9
2018-02-04T20:07:16.421Z,22.9
2018-02-04T20:08:16.280Z,22.9
2018-02-04T20:09:16.554Z,22.8
2018-02-04T20:10:16.271Z,22.8
2018-02-04T20:11:16.072Z,22.8
2018-02-04T20:12:16.062Z,22.8
2018-02-04T20:13:15.949Z,22.8
2018-02-04T20:14:15.841Z,22.6
2018-02-04T20:15:15.781Z,22.6
2018-02-04T20:16:15.684Z,22.6
2018-02-04T20:17:15.860Z,22.6
2018-02-04T20:18:15.562Z,22.6
2018-02-04T20:19:15.599Z,22.6
2018-02-04T20:20:15.348Z,22.6
2018-02-04T20:21:15.295Z,22.7
2018-02-04T20:22:15.225Z,22.8
2018-02-04T20:23:15.249Z,22.9
2018-02-04T20:24:15.102Z,22.8
2018-02-04T20:25:14.954Z,22.8
2018-02-04T20:26:15.062Z,22.9
2018-02-04T20:27:14.940Z,22.9
2018-02-04T20:28:14.899Z,22.9
2018-02-04T20:29:14.737Z,22.8
2018-02-04T20:30:14.711Z,22.8
2018-02-04T20:31:14.522Z,22.8
2018-02-04T20:32:14.443Z,22.8
2018-02-04T20:33:14.394Z,22.8
2018-02-04T20:34:14.257Z,22.6
2018-02-04T20:35:14.312Z,22.6
2018-02-04T20:36:14.136Z,22.5
2018-02-04T20:37:14.156Z,22.4
2018-02-04T20:38:14.099Z,22.4
2018-02-04T20:39:13.864Z,22.4
2018-02-04T20:40:13.922Z,22.4
2018-02-04T20:41:13.848Z,22.4
2018-02-04T20:42:13.692Z,22.4
2018-02-04T20:43:13.553Z,22.4
2018-02-04T20:44:13.540Z,22.4
2018-02-04T20:45:13.396Z,22.5
2018-02-04T20:46:13.458Z,22.6
2018-02-04T20:47:13.273Z,22.6
2018-02-04T20:48:13.298Z,22.7
2018-02-04T20:49:13.084Z,22.8
2018-02-04T20:50:13.074Z,22.9
2018-02-04T20:51:13.206Z,22.9
2018-02-04T20:52:13.202Z,22.9
2018-02-04T20:53:12.813Z,22.9
2018-02-04T20:54:12.705Z,23
2018-02-04T20:55:12.795Z,23
2018-02-04T20:56:12.570Z,22.9
2018-02-04T20:57:12.497Z,22.8
2018-02-04T20:58:12.420Z,22.8
2018-02-04T20:59:12.331Z,22.8
2018-02-04T21:00:12.227Z,22.9
2018-02-04T21:01:12.210Z,22.8
2018-02-04T21:02:12.106Z,22.6
2018-02-04T21:03:12.023Z,22.5
2018-02-04T21:04:11.946Z,22.4
2018-02-04T21:05:11.868Z,22.4
2018-02-04T21:06:11.787Z,22.3
2018-02-04T21:07:12.077Z,22.3
2018-02-04T21:08:11.665Z,22.3
2018-02-04T21:09:11.557Z,22.3
2018-02-04T21:10:11.457Z,22.3
2018-02-04T21:11:11.431Z,22.4
2018-02-04T21:12:11.291Z,22.4
2018-02-04T21:13:11.394Z,22.4
2018-02-04T21:14:11.171Z,22.5
2018-02-04T21:15:11.201Z,22.6
2018-02-04T21:16:11.118Z,22.6
2018-02-04T21:17:10.937Z,22.6
2018-02-04T21:18:10.851Z,22.7
2018-02-04T21:19:10.818Z,22.8
2018-02-04T21:20:10.765Z,22.9
2018-02-04T21:21:10.621Z,22.9
2018-02-04T21:22:10.654Z,22.9
2018-02-04T21:23:10.612Z,22.9
2018-02-04T21:24:10.451Z,23.1
2018-02-04T21:25:10.308Z,23.1
2018-02-04T21:26:10.236Z,23.1
2018-02-04T21:27:10.269Z,22.9
2018-02-04T21:28:10.107Z,22.9
2018-02-04T21:29:09.974Z,22.9
2018-02-04T21:30:09.928Z,22.9
2018-02-04T21:31:09.847Z,22.8
2018-02-04T21:32:09.732Z,22.6
2018-02-04T21:33:09.722Z,22.6
2018-02-04T21:34:09.714Z,22.4
2018-02-04T21:35:09.540Z,22.4
2018-02-04T21:36:09.736Z,22.4
2018-02-04T21:37:09.432Z,22.4
2018-02-04T21:38:09.618Z,22.4
2018-02-04T21:39:09.324Z,22.4
2018-02-04T21:40:09.244Z,22.4
2018-02-04T21:41:09.171Z,22.4
2018-02-04T21:42:09.254Z,22.5
2018-02-04T21:43:08.937Z,22.6
2018-02-04T21:44:08.861Z,22.6
2018-02-04T21:45:08.719Z,22.6
2018-02-04T21:46:08.776Z,22.7
2018-02-04T21:47:08.892Z,22.8
2018-02-04T21:48:08.817Z,22.8
2018-02-04T21:49:08.443Z,22.9
2018-02-04T21:50:08.355Z,22.9
2018-02-04T21:51:08.280Z,22.9
2018-02-04T21:52:08.213Z,22.9
2018-02-04T21:53:08.277Z,23
2018-02-04T21:54:08.106Z,23.1
2018-02-04T21:55:08.001Z,22.9
2018-02-04T21:56:07.864Z,22.8
2018-02-04T21:57:07.920Z,22.7
2018-02-04T21:58:07.843Z,22.6
2018-02-04T21:59:07.658Z,22.6
2018-02-04T22:00:07.616Z,22.6
2018-02-04T22:01:07.470Z,22.5
2018-02-04T22:02:07.571Z,22.5
2018-02-04T22:03:07.321Z,22.5
2018-02-04T22:04:07.266Z,22.5
2018-02-04T22:05:07.304Z,22.6
2018-02-04T22:06:07.107Z,22.6
2018-02-04T22:07:07.139Z,22.7
2018-02-04T22:08:06.957Z,22.8
2018-02-04T22:09:06.874Z,22.8
2018-02-04T22:10:06.910Z,22.9
2018-02-04T22:11:07.090Z,22.9
2018-02-04T22:12:06.703Z,22.8
2018-02-04T22:13:06.625Z,22.9
2018-02-04T22:14:06.622Z,22.9
2018-02-04T22:15:06.523Z,23
2018-02-04T22:16:06.624Z,22.8
2018-02-04T22:17:06.251Z,22.8
2018-02-04T22:18:06.150Z,22.6
2018-02-04T22:19:06.130Z,22.6
2018-02-04T22:20:06.023Z,22.5
2018-02-04T22:21:05.938Z,22.4
2018-02-04T22:22:05.871Z,22.4
2018-02-04T22:23:05.756Z,22.4
2018-02-04T22:24:05.859Z,22.4
2018-02-04T22:25:05.630Z,22.4
2018-02-04T22:26:05.657Z,22.5
2018-02-04T22:27:05.621Z,22.6
2018-02-04T22:28:05.367Z,22.6
2018-02-04T22:29:05.436Z,22.6
2018-02-04T22:30:05.374Z,22.6
2018-02-04T22:31:05.197Z,22.6
2018-02-04T22:32:05.157Z,22.6
2018-02-04T22:33:05.026Z,22.8
2018-02-04T22:34:05.099Z,22.9
2018-02-04T22:35:05.026Z,23
2018-02-04T22:36:04.996Z,22.9
2018-02-04T22:37:04.751Z,22.9
2018-02-04T22:38:04.826Z,23
2018-02-04T22:39:04.641Z,23.1
2018-02-04T22:40:04.575Z,23.1
2018-02-04T22:41:04.518Z,22.9
2018-02-04T22:42:04.436Z,22.8
2018-02-04T22:43:04.338Z,22.8
2018-02-04T22:44:04.622Z,22.9
2018-02-04T22:45:04.489Z,22.8
2018-02-04T22:46:04.296Z,22.7
2018-02-04T22:47:04.206Z,22.6
2018-02-04T22:48:04.000Z,22.4
2018-02-04T22:49:04.113Z,22.4
2018-02-04T22:50:03.890Z,22.3
2018-02-04T22:51:03.933Z,22.3
2018-02-04T22:52:03.866Z,22.3
2018-02-04T22:53:03.684Z,22.3
2018-02-04T22:54:03.897Z,22.3
2018-02-04T22:55:03.604Z,22.3
2018-02-04T22:56:03.624Z,22.4
2018-02-04T22:57:03.422Z,22.4
2018-02-04T22:58:03.338Z,22.4
2018-02-04T22:59:03.379Z,22.5
2018-02-04T23:00:03.306Z,22.5
2018-02-04T23:01:03.101Z,22.6
2018-02-04T23:02:03.146Z,22.6
2018-02-04T23:03:03.102Z,22.7
2018-02-04T23:04:02.986Z,22.8
2018-02-04T23:05:03.057Z,22.8
2018-02-04T23:06:02.765Z,22.9
2018-02-04T23:07:02.754Z,22.9
2018-02-04T23:08:02.657Z,22.9
2018-02-04T23:09:02.691Z,22.9
2018-02-04T23:10:02.633Z,23
2018-02-04T23:11:02.772Z,23.1
2018-02-04T23:12:02.439Z,22.9
2018-02-04T23:13:02.344Z,22.8
2018-02-04T23:14:02.223Z,22.7
2018-02-04T23:15:02.287Z,22.6
2018-02-04T23:16:02.108Z,22.6
2018-02-04T23:17:02.069Z,22.5
2018-02-04T23:18:01.962Z,22.5
2018-02-04T23:19:01.902Z,22.4
2018-02-04T23:20:01.831Z,22.4
2018-02-04T23:21:02.052Z,22.5
2018-02-04T23:22:02.019Z,22.5
2018-02-04T23:23:01.594Z,22.6
2018-02-04T23:24:01.565Z,22.6
2018-02-04T23:25:01.486Z,22.6
2018-02-04T23:26:01.424Z,22.6
2018-02-04T23:27:01.320Z,22.7
2018-02-04T23:28:01.430Z,22.8
2018-02-04T23:29:01.215Z,22.9
2018-02-04T23:30:01.144Z,22.9
2018-02-04T23:31:01.140Z,22.9
2018-02-04T23:32:01.163Z,22.9
2018-02-04T23:33:01.048Z,22.9
2018-02-04T23:34:00.987Z,23
2018-02-04T23:35:00.908Z,23
2018-02-04T23:36:00.702Z,22.9
2018-02-04T23:37:00.988Z,22.8
2018-02-04T23:38:00.632Z,22.6
2018-02-04T23:39:00.496Z,22.6
2018-02-04T23:40:00.566Z,22.6
2018-02-04T23:41:00.685Z,22.5
2018-02-04T23:42:00.321Z,22.4
2018-02-04T23:43:00.401Z,22.5
2018-02-04T23:44:00.243Z,22.5
2018-02-04T23:45:00.115Z,22.6
2018-02-04T23:46:00.171Z,22.6
2018-02-04T23:47:00.012Z,22.6
2018-02-04T23:47:59.878Z,22.7
2018-02-04T23:48:59.877Z,22.8
2018-02-04T23:49:59.857Z,22.9
2018-02-04T23:50:59.813Z,22.9
2018-02-04T23:51:59.634Z,22.9
2018-02-04T23:52:59.589Z,22.9
2018-02-04T23:53:59.536Z,22.9
2018-02-04T23:54:59.396Z,23
2018-02-04T23:55:59.559Z,23
2018-02-04T23:56:59.261Z,22.8
2018-02-04T23:57:59.329Z,22.7
2018-02-04T23:58:59.186Z,22.6
2018-02-04T23:59:59.060Z,22.6
